createdAt,value
2017-11-21T00:00:51.724Z,18.00
2017-11-21T00:03:18.552Z,16.80
2017-11-21T00:05:44.650Z,20.50
2017-11-21T00:08:10.751Z,17.80
2017-11-21T00:10:36.843Z,16.23
2017-11-21T00:13:02.947Z,20.43
2017-11-21T00:15:29.809Z,16.00
2017-11-21T00:17:55.932Z,16.77
2017-11-21T00:20:22.853Z,16.60
2017-11-21T00:22:48.957Z,16.20
2017-11-21T00:25:15.690Z,15.83
2017-11-21T00:27:41.805Z,18.27
2017-11-21T00:30:08.691Z,17.50
2017-11-21T00:32:34.881Z,16.30
2017-11-21T00:35:01.198Z,16.50
2017-11-21T00:37:27.302Z,18.80
2017-11-21T00:39:54.257Z,18.80
2017-11-21T00:42:21.189Z,18.80
2017-11-21T00:44:47.293Z,16.23
2017-11-21T00:47:13.452Z,17.60
2017-11-21T00:49:40.341Z,17.03
2017-11-21T00:52:07.169Z,16.20
2017-11-21T00:54:33.326Z,16.00
2017-11-21T00:57:00.178Z,17.80
2017-11-21T00:59:26.275Z,16.80
2017-11-21T01:01:52.354Z,18.07
2017-11-21T01:04:18.453Z,15.80
2017-11-21T01:06:44.546Z,16.37
2017-11-21T01:09:10.717Z,16.00
2017-11-21T01:11:36.867Z,17.10
2017-11-21T01:14:03.046Z,16.33
2017-11-21T01:16:29.866Z,16.10
2017-11-21T01:18:55.996Z,15.87
2017-11-21T01:21:22.158Z,16.70
2017-11-21T01:23:48.254Z,16.57
2017-11-21T01:26:14.378Z,16.77
2017-11-21T01:28:40.489Z,17.07
2017-11-21T01:31:07.323Z,18.40
2017-11-21T01:33:33.451Z,17.00
2017-11-21T01:35:59.546Z,18.07
2017-11-21T01:38:25.677Z,14.37
2017-11-21T01:40:51.797Z,16.03
2017-11-21T01:43:17.918Z,17.80
2017-11-21T01:45:44.019Z,17.97
2017-11-21T01:48:10.153Z,16.10
2017-11-21T01:50:36.238Z,16.80
2017-11-21T01:53:02.548Z,15.37
2017-11-21T01:55:28.757Z,16.07
2017-11-21T01:57:54.858Z,17.10
2017-11-21T02:00:20.980Z,17.00
2017-11-21T02:02:47.103Z,16.47
2017-11-21T02:05:13.170Z,15.30
2017-11-21T02:07:39.249Z,17.27
2017-11-21T02:10:05.385Z,16.70
2017-11-21T02:12:31.606Z,17.13
2017-11-21T02:14:58.424Z,16.33
2017-11-21T02:17:24.568Z,15.53
2017-11-21T02:19:50.670Z,16.87
2017-11-21T02:22:17.313Z,16.40
2017-11-21T02:24:43.539Z,17.70
2017-11-21T02:27:09.665Z,16.20
2017-11-21T02:29:35.773Z,15.53
2017-11-21T02:32:02.026Z,16.70
2017-11-21T02:34:28.857Z,15.30
2017-11-21T02:36:54.937Z,17.07
2017-11-21T02:39:22.227Z,17.73
2017-11-21T02:41:48.433Z,17.53
2017-11-21T02:44:15.347Z,16.87
2017-11-21T02:46:41.495Z,16.73
2017-11-21T02:49:07.663Z,17.73
2017-11-21T02:51:33.750Z,16.60
2017-11-21T02:53:59.870Z,18.63
2017-11-21T02:56:26.067Z,19.30
2017-11-21T02:58:52.161Z,17.90
2017-11-21T03:01:18.274Z,16.80
2017-11-21T03:03:44.352Z,18.10
2017-11-21T03:06:10.465Z,17.20
2017-11-21T03:08:36.592Z,17.80
2017-11-21T03:11:03.837Z,16.87
2017-11-21T03:13:30.682Z,16.90
2017-11-21T03:15:56.808Z,15.57
2017-11-21T03:18:23.074Z,18.27
2017-11-21T03:21:03.172Z,16.70
2017-11-21T03:23:41.473Z,17.20
2017-11-21T03:26:20.556Z,16.57
2017-11-21T03:28:46.645Z,17.93
2017-11-21T03:31:13.494Z,17.90
2017-11-21T03:33:40.349Z,17.17
2017-11-21T03:36:06.417Z,16.37
2017-11-21T03:38:32.554Z,17.67
2017-11-21T03:40:58.750Z,17.00
2017-11-21T03:43:25.576Z,17.17
2017-11-21T03:45:52.558Z,18.10
2017-11-21T03:48:18.674Z,17.37
2017-11-21T03:50:46.093Z,18.20
2017-11-21T03:53:12.670Z,18.93
2017-11-21T03:55:38.814Z,16.40
2017-11-21T03:58:04.942Z,17.30
2017-11-21T04:00:31.049Z,17.47
2017-11-21T04:02:57.166Z,17.60
2017-11-21T04:05:23.414Z,17.70
2017-11-21T04:07:49.499Z,17.10
2017-11-21T04:10:15.818Z,17.50
2017-11-21T04:12:42.998Z,17.13
2017-11-21T04:15:09.111Z,17.53
2017-11-21T04:17:36.043Z,17.63
2017-11-21T04:20:02.114Z,17.60
2017-11-21T04:22:28.245Z,17.30
2017-11-21T04:24:55.947Z,18.27
2017-11-21T04:27:22.033Z,17.70
2017-11-21T04:29:48.234Z,17.80
2017-11-21T04:32:14.374Z,17.53
2017-11-21T04:34:40.523Z,17.80
2017-11-21T04:37:06.607Z,16.97
2017-11-21T04:39:32.787Z,17.93
2017-11-21T04:41:58.912Z,18.33
2017-11-21T04:44:24.999Z,18.20
2017-11-21T04:46:51.145Z,17.37
2017-11-21T04:49:17.356Z,17.57
2017-11-21T04:51:43.615Z,18.00
2017-11-21T04:54:09.813Z,18.57
2017-11-21T04:56:35.922Z,18.40
2017-11-21T04:59:02.767Z,18.07
2017-11-21T05:01:28.906Z,18.23
2017-11-21T05:03:55.749Z,19.33
2017-11-21T05:06:21.864Z,17.63
2017-11-21T05:08:47.986Z,18.90
2017-11-21T05:11:14.115Z,19.63
2017-11-21T05:13:40.201Z,19.70
2017-11-21T05:16:06.370Z,18.60
2017-11-21T05:18:32.492Z,20.63
2017-11-21T05:20:59.340Z,18.87
2017-11-21T05:23:25.470Z,21.23
2017-11-21T05:25:51.573Z,21.63
2017-11-21T05:28:17.676Z,18.97
2017-11-21T05:30:43.991Z,20.30
2017-11-21T05:33:22.295Z,20.90
2017-11-21T05:35:48.476Z,19.40
2017-11-21T05:38:15.330Z,19.20
2017-11-21T05:40:42.127Z,19.47
2017-11-21T05:43:08.273Z,19.10
2017-11-21T05:45:34.420Z,20.67
2017-11-21T05:48:00.540Z,20.07
2017-11-21T05:50:27.077Z,19.37
2017-11-21T05:52:53.290Z,18.23
2017-11-21T05:55:20.129Z,17.83
2017-11-21T05:57:47.109Z,18.23
2017-11-21T06:00:13.216Z,20.07
2017-11-21T06:02:39.841Z,20.27
2017-11-21T06:05:06.285Z,18.77
2017-11-21T06:07:32.420Z,19.73
2017-11-21T06:09:58.510Z,21.03
2017-11-21T06:12:25.379Z,20.50
2017-11-21T06:14:52.526Z,19.07
2017-11-21T06:17:18.656Z,17.80
2017-11-21T06:19:45.523Z,18.60
2017-11-21T06:22:11.678Z,19.50
2017-11-21T06:24:37.790Z,19.03
2017-11-21T06:27:03.991Z,19.80
2017-11-21T06:29:30.101Z,18.00
2017-11-21T06:31:56.280Z,16.80
2017-11-21T06:34:22.446Z,17.80
2017-11-21T06:36:49.298Z,18.47
2017-11-21T06:39:16.175Z,18.00
2017-11-21T06:41:42.300Z,17.90
2017-11-21T06:44:08.411Z,18.50
2017-11-21T06:46:34.532Z,17.50
2017-11-21T06:49:00.704Z,16.23
2017-11-21T06:51:26.809Z,16.50
2017-11-21T06:53:52.984Z,16.83
2017-11-21T06:56:19.174Z,17.00
2017-11-21T06:58:45.284Z,17.57
2017-11-21T07:01:11.420Z,16.63
2017-11-21T07:03:37.590Z,17.00
2017-11-21T07:06:03.861Z,17.33
2017-11-21T07:08:30.325Z,15.60
2017-11-21T07:10:56.618Z,16.97
2017-11-21T07:13:22.795Z,16.13
2017-11-21T07:15:48.952Z,16.47
2017-11-21T07:18:15.917Z,15.40
2017-11-21T07:20:42.051Z,15.97
2017-11-21T07:23:08.891Z,17.93
2017-11-21T07:25:35.887Z,18.20
2017-11-21T07:28:02.043Z,17.27
2017-11-21T07:30:28.145Z,17.70
2017-11-21T07:32:55.034Z,19.03
2017-11-21T07:35:21.160Z,19.60
2017-11-21T07:37:47.271Z,18.30
2017-11-21T07:40:14.158Z,18.10
2017-11-21T07:42:40.601Z,17.03
2017-11-21T07:45:06.707Z,21.50
2017-11-21T07:47:33.562Z,16.57
2017-11-21T07:50:02.647Z,16.30
2017-11-21T07:52:28.733Z,15.53
2017-11-21T07:54:54.854Z,15.53
2017-11-21T07:57:21.881Z,15.50
2017-11-21T07:59:48.034Z,13.40
2017-11-21T08:02:14.167Z,13.90
2017-11-21T08:04:40.314Z,14.70
2017-11-21T08:07:06.532Z,14.90
2017-11-21T08:09:32.652Z,16.17
2017-11-21T08:11:58.795Z,16.10
2017-11-21T08:14:25.423Z,15.00
2017-11-21T08:16:51.538Z,15.13
2017-11-21T08:19:17.670Z,14.60
2017-11-21T08:21:44.517Z,15.33
2017-11-21T08:24:17.919Z,17.33
2017-11-21T08:26:44.078Z,17.00
2017-11-21T08:29:10.238Z,16.47
2017-11-21T08:31:36.442Z,14.73
2017-11-21T08:34:03.314Z,15.90
2017-11-21T08:36:29.399Z,15.60
2017-11-21T08:38:56.305Z,15.20
2017-11-21T08:41:22.512Z,15.37
2017-11-21T08:43:48.675Z,15.10
2017-11-21T08:46:14.796Z,16.40
2017-11-21T08:48:40.950Z,13.83
2017-11-21T08:51:07.134Z,13.93
2017-11-21T08:53:35.442Z,16.73
2017-11-21T08:56:01.979Z,14.77
2017-11-21T08:58:28.326Z,14.77
2017-11-21T09:00:54.535Z,15.37
2017-11-21T09:03:20.839Z,14.13
2017-11-21T09:05:47.570Z,16.13
2017-11-21T09:08:13.802Z,15.67
2017-11-21T09:10:41.155Z,13.43
2017-11-21T09:13:07.348Z,15.17
2017-11-21T09:15:33.510Z,16.97
2017-11-21T09:17:59.645Z,14.97
2017-11-21T09:20:26.064Z,15.27
2017-11-21T09:22:52.191Z,16.93
2017-11-21T09:25:22.768Z,15.57
2017-11-21T09:27:49.006Z,16.63
2017-11-21T09:30:19.040Z,15.10
2017-11-21T09:32:45.212Z,17.50
2017-11-21T09:35:11.353Z,17.23
2017-11-21T09:37:37.646Z,19.17
2017-11-21T09:40:06.513Z,16.23
2017-11-21T09:42:32.662Z,15.43
2017-11-21T09:44:58.838Z,15.00
2017-11-21T09:47:25.011Z,17.80
2017-11-21T09:49:51.264Z,17.87
2017-11-21T09:52:18.187Z,16.23
2017-11-21T09:54:44.277Z,19.80
2017-11-21T09:57:10.420Z,17.80
2017-11-21T09:59:36.610Z,16.00
2017-11-21T10:02:02.725Z,15.77
2017-11-21T10:04:28.857Z,12.97
2017-11-21T10:06:54.995Z,13.83
2017-11-21T10:09:21.144Z,16.40
2017-11-21T10:11:47.261Z,16.00
2017-11-21T10:14:13.465Z,14.83
2017-11-21T10:16:40.295Z,15.37
2017-11-21T10:19:06.527Z,14.33
2017-11-21T10:21:32.839Z,15.40
2017-11-21T10:23:58.987Z,15.50
2017-11-21T10:26:25.095Z,14.77
2017-11-21T10:28:51.290Z,17.53
2017-11-21T10:31:17.390Z,17.50
2017-11-21T10:33:43.474Z,16.23
2017-11-21T10:36:09.615Z,16.23
2017-11-21T10:38:35.702Z,17.63
2017-11-21T10:41:01.781Z,14.33
2017-11-21T10:43:28.009Z,14.03
2017-11-21T10:45:54.090Z,15.40
2017-11-21T10:48:20.189Z,14.70
2017-11-21T10:50:46.403Z,11.83
2017-11-21T10:53:12.529Z,14.77
2017-11-21T10:55:38.595Z,13.90
2017-11-21T10:58:04.716Z,14.90
2017-11-21T11:00:30.810Z,14.27
2017-11-21T11:02:57.656Z,14.17
2017-11-21T11:05:24.545Z,26.80
2017-11-21T11:07:50.645Z,18.70
2017-11-21T11:10:16.743Z,17.80
2017-11-21T11:12:43.269Z,18.10
2017-11-21T11:15:09.446Z,16.60
2017-11-21T11:17:35.818Z,13.37
2017-11-21T11:20:01.983Z,13.40
2017-11-21T11:22:28.097Z,12.73
2017-11-21T11:24:54.906Z,11.87
2017-11-21T11:27:23.596Z,12.60
2017-11-21T11:29:51.483Z,14.00
2017-11-21T11:32:19.352Z,14.77
2017-11-21T11:34:47.285Z,14.07
2017-11-21T11:37:15.302Z,15.30
2017-11-21T11:39:43.193Z,15.73
2017-11-21T11:42:11.111Z,12.70
2017-11-21T11:44:39.034Z,14.63
2017-11-21T11:47:07.015Z,14.73
2017-11-21T11:49:34.906Z,14.13
2017-11-21T11:52:02.767Z,13.37
2017-11-21T11:54:30.662Z,12.97
2017-11-21T11:56:58.563Z,12.90
2017-11-21T11:59:26.472Z,13.37
2017-11-21T12:01:54.403Z,13.03
2017-11-21T12:04:22.381Z,12.80
2017-11-21T12:06:50.247Z,13.60
2017-11-21T12:09:18.082Z,12.80
2017-11-21T12:11:45.972Z,12.27
2017-11-21T12:14:13.884Z,12.40
2017-11-21T12:16:41.768Z,12.13
2017-11-21T12:19:09.673Z,12.27
2017-11-21T12:21:37.544Z,13.70
2017-11-21T12:24:05.381Z,13.57
2017-11-21T12:26:33.291Z,16.17
2017-11-21T12:29:01.176Z,11.53
2017-11-21T12:31:29.047Z,12.70
2017-11-21T12:33:56.959Z,12.53
2017-11-21T12:36:24.801Z,14.43
2017-11-21T12:38:52.718Z,12.73
2017-11-21T12:41:20.588Z,11.70
2017-11-21T12:43:48.444Z,22.23
2017-11-21T12:46:16.306Z,20.00
2017-11-21T12:48:44.219Z,13.10
2017-11-21T12:51:12.108Z,16.50
2017-11-21T12:53:40.120Z,15.70
2017-11-21T12:56:08.033Z,12.00
2017-11-21T12:58:35.881Z,13.20
2017-11-21T13:01:03.757Z,23.07
2017-11-21T13:03:31.626Z,12.90
2017-11-21T13:05:59.489Z,11.97
2017-11-21T13:08:27.437Z,13.83
2017-11-21T13:10:55.333Z,13.57
2017-11-21T13:13:23.206Z,11.60
2017-11-21T13:15:51.100Z,15.93
2017-11-21T13:18:18.966Z,13.47
2017-11-21T13:20:46.825Z,14.47
2017-11-21T13:23:15.794Z,12.50
2017-11-21T13:25:43.684Z,17.67
2017-11-21T13:28:11.555Z,13.17
2017-11-21T13:30:39.521Z,16.10
2017-11-21T13:33:07.594Z,14.60
2017-11-21T13:35:35.438Z,16.00
2017-11-21T13:38:03.294Z,15.20
2017-11-21T13:40:31.185Z,15.60
2017-11-21T13:42:59.043Z,16.50
2017-11-21T13:45:26.948Z,17.53
2017-11-21T13:47:54.854Z,12.30
2017-11-21T13:50:22.744Z,14.00
2017-11-21T13:52:50.652Z,12.80
2017-11-21T13:55:18.546Z,14.70
2017-11-21T13:57:46.457Z,13.43
2017-11-21T14:00:14.360Z,11.50
2017-11-21T14:02:47.303Z,13.97
2017-11-21T14:05:16.237Z,14.10
2017-11-21T14:07:44.100Z,12.07
2017-11-21T14:10:12.037Z,13.10
2017-11-21T14:12:39.916Z,11.97
2017-11-21T14:15:07.993Z,12.40
2017-11-21T14:17:35.923Z,11.27
2017-11-21T14:20:03.770Z,13.77
2017-11-21T14:22:31.649Z,11.80
2017-11-21T14:24:59.578Z,12.57
2017-11-21T14:27:27.433Z,12.67
2017-11-21T14:29:55.347Z,12.77
2017-11-21T14:32:23.234Z,16.00
2017-11-21T14:34:51.115Z,13.87
2017-11-21T14:37:18.970Z,12.40
2017-11-21T14:39:46.925Z,13.53
2017-11-21T14:42:14.921Z,12.60
2017-11-21T14:44:43.949Z,12.67
2017-11-21T14:47:11.941Z,14.57
2017-11-21T14:49:39.848Z,15.57
2017-11-21T14:52:07.704Z,14.60
2017-11-21T14:54:35.692Z,14.40
2017-11-21T14:57:03.555Z,14.30
2017-11-21T14:59:31.470Z,15.10
2017-11-21T15:01:59.349Z,14.20
2017-11-21T15:04:27.191Z,14.07
2017-11-21T15:06:55.051Z,12.70
2017-11-21T15:09:22.954Z,12.50
2017-11-21T15:11:50.858Z,11.37
2017-11-21T15:14:18.747Z,12.60
2017-11-21T15:16:46.644Z,11.47
2017-11-21T15:19:14.512Z,12.17
2017-11-21T15:21:42.394Z,12.70
2017-11-21T15:24:10.302Z,12.47
2017-11-21T15:26:38.266Z,13.03
2017-11-21T15:29:06.119Z,11.50
2017-11-21T15:31:36.859Z,12.77
2017-11-21T15:34:04.728Z,12.87
2017-11-21T15:36:32.599Z,11.97
2017-11-21T15:39:00.521Z,13.67
2017-11-21T15:41:28.363Z,12.53
2017-11-21T15:43:56.859Z,13.90
2017-11-21T15:46:24.816Z,14.40
2017-11-21T15:48:52.677Z,17.07
2017-11-21T15:51:20.688Z,14.03
2017-11-21T15:53:48.653Z,13.90
2017-11-21T15:56:16.697Z,13.83
2017-11-21T15:58:44.596Z,12.53
2017-11-21T16:01:12.655Z,13.00
2017-11-21T16:03:40.518Z,14.27
2017-11-21T16:06:08.438Z,13.10
2017-11-21T16:08:37.157Z,14.70
2017-11-21T16:11:05.047Z,13.87
2017-11-21T16:13:32.912Z,16.00
2017-11-21T16:16:00.848Z,14.73
2017-11-21T16:18:28.716Z,16.00
2017-11-21T16:20:56.605Z,17.13
2017-11-21T16:23:24.502Z,16.80
2017-11-21T16:25:53.249Z,16.23
2017-11-21T16:28:21.112Z,14.80
2017-11-21T16:30:48.993Z,15.50
2017-11-21T16:33:16.846Z,15.10
2017-11-21T16:35:44.741Z,15.07
2017-11-21T16:38:12.657Z,16.23
2017-11-21T16:40:40.567Z,19.30
2017-11-21T16:43:08.497Z,14.90
2017-11-21T16:45:37.164Z,16.37
2017-11-21T16:48:05.006Z,18.63
2017-11-21T16:50:32.885Z,17.00
2017-11-21T16:53:00.774Z,17.77
2017-11-21T16:55:28.629Z,14.97
2017-11-21T16:57:56.481Z,14.40
2017-11-21T17:00:24.390Z,14.73
2017-11-21T17:02:52.313Z,14.93
2017-11-21T17:05:20.178Z,16.40
2017-11-21T17:07:48.117Z,16.63
2017-11-21T17:10:16.239Z,16.80
2017-11-21T17:12:44.166Z,20.23
2017-11-21T17:15:12.542Z,18.20
2017-11-21T17:17:40.438Z,16.63
2017-11-21T17:20:08.327Z,16.10
2017-11-21T17:22:36.288Z,17.47
2017-11-21T17:25:05.318Z,15.73
2017-11-21T17:27:33.163Z,14.50
2017-11-21T17:30:01.041Z,17.67
2017-11-21T17:35:03.444Z,16.40
2017-11-21T17:37:31.348Z,16.00
2017-11-21T17:39:59.230Z,15.77
2017-11-21T17:42:27.117Z,15.47
2017-11-21T17:44:55.008Z,16.43
2017-11-21T17:47:22.899Z,16.60
2017-11-21T17:49:50.798Z,15.30
2017-11-21T17:52:18.734Z,16.07
2017-11-21T17:54:46.608Z,15.50
2017-11-21T17:57:14.580Z,16.37
2017-11-21T17:59:42.488Z,14.93
2017-11-21T18:02:11.436Z,13.57
2017-11-21T18:04:39.401Z,14.00
2017-11-21T18:07:07.281Z,13.33
2017-11-21T18:09:35.147Z,14.40
2017-11-21T18:12:03.075Z,15.27
2017-11-21T18:14:30.936Z,15.80
2017-11-21T18:16:58.803Z,16.67
2017-11-21T18:19:26.707Z,14.50
2017-11-21T18:21:54.602Z,13.77
2017-11-21T18:24:23.459Z,13.57
2017-11-21T18:26:51.353Z,14.37
2017-11-21T18:29:19.218Z,14.90
2017-11-21T18:31:47.083Z,15.50
2017-11-21T18:34:14.971Z,16.13
2017-11-21T18:36:42.938Z,13.93
2017-11-21T18:39:11.043Z,15.23
2017-11-21T18:41:39.103Z,15.60
2017-11-21T18:44:06.987Z,16.57
2017-11-21T18:46:34.896Z,16.20
2017-11-21T18:49:02.760Z,16.60
2017-11-21T18:51:30.628Z,15.73
2017-11-21T18:53:58.562Z,16.37
2017-11-21T18:56:26.420Z,14.10
2017-11-21T18:58:54.414Z,15.47
2017-11-21T19:01:22.273Z,15.50
2017-11-21T19:03:50.125Z,15.87
2017-11-21T19:06:18.069Z,15.90
2017-11-21T19:08:45.960Z,13.43
2017-11-21T19:11:13.902Z,14.20
2017-11-21T19:13:41.762Z,13.13
2017-11-21T19:16:09.833Z,12.70
2017-11-21T19:18:37.722Z,12.27
2017-11-21T19:21:05.703Z,12.13
2017-11-21T19:23:33.597Z,12.77
2017-11-21T19:26:01.502Z,11.50
2017-11-21T19:28:29.378Z,12.77
2017-11-21T19:30:57.257Z,13.67
2017-11-21T19:33:25.230Z,11.50
2017-11-21T19:35:53.101Z,11.97
2017-11-21T19:38:21.037Z,11.13
2017-11-21T19:40:48.888Z,10.63
2017-11-21T19:43:16.877Z,11.67
2017-11-21T19:45:44.769Z,11.17
2017-11-21T19:48:12.600Z,10.37
2017-11-21T19:50:40.541Z,11.47
2017-11-21T19:53:08.434Z,11.30
2017-11-21T19:55:38.702Z,13.60
2017-11-21T19:58:06.606Z,13.20
2017-11-21T20:00:34.599Z,11.90
2017-11-21T20:03:02.493Z,11.07
2017-11-21T20:05:30.384Z,10.37
2017-11-21T20:07:58.361Z,7.90
2017-11-21T20:10:26.283Z,10.27
2017-11-21T20:12:54.246Z,12.17
2017-11-21T20:15:22.648Z,10.87
2017-11-21T20:17:53.207Z,10.70
2017-11-21T20:20:19.368Z,11.63
2017-11-21T20:22:45.618Z,9.53
2017-11-21T20:25:11.816Z,9.20
2017-11-21T20:27:38.859Z,8.90
2017-11-21T20:30:04.996Z,9.27
2017-11-21T20:32:31.151Z,13.83
2017-11-21T20:34:59.164Z,11.37
2017-11-21T20:37:25.293Z,11.10
2017-11-21T20:39:52.531Z,13.23
2017-11-21T20:42:19.464Z,12.03
2017-11-21T20:45:09.019Z,12.30
2017-11-21T20:47:35.189Z,10.60
2017-11-21T20:50:01.316Z,10.20
2017-11-21T20:52:27.418Z,10.40
2017-11-21T20:54:53.571Z,9.10
2017-11-21T20:57:21.617Z,10.30
2017-11-21T20:59:49.531Z,10.23
2017-11-21T21:02:17.606Z,11.70
2017-11-21T21:04:45.533Z,11.03
2017-11-21T21:07:13.423Z,12.03
2017-11-21T21:09:42.380Z,11.80
2017-11-21T21:12:10.371Z,10.37
2017-11-21T21:14:37.219Z,11.47
2017-11-21T21:17:03.356Z,9.70
2017-11-21T21:19:30.205Z,10.93
2017-11-21T21:21:57.014Z,10.70
2017-11-21T21:24:23.142Z,9.53
2017-11-21T21:26:51.089Z,10.90
2017-11-21T21:29:19.054Z,11.47
2017-11-21T21:31:46.937Z,9.73
2017-11-21T21:34:14.793Z,11.33
2017-11-21T21:36:42.690Z,9.37
2017-11-21T21:39:10.683Z,9.73
2017-11-21T21:41:38.579Z,9.43
2017-11-21T21:44:06.475Z,7.73
2017-11-21T21:46:36.418Z,10.07
2017-11-21T21:49:04.278Z,9.17
2017-11-21T21:51:32.133Z,9.03
2017-11-21T21:54:00.058Z,8.10
2017-11-21T21:56:27.961Z,7.27
2017-11-21T21:58:56.870Z,8.03
2017-11-21T22:01:24.737Z,9.97
2017-11-21T22:03:52.604Z,9.57
2017-11-21T22:06:20.537Z,8.27
2017-11-21T22:08:48.490Z,7.83
2017-11-21T22:11:16.460Z,8.73
2017-11-21T22:13:44.430Z,8.67
2017-11-21T22:16:12.492Z,8.20
2017-11-21T22:18:40.547Z,8.03
2017-11-21T22:21:08.461Z,7.00
2017-11-21T22:23:36.459Z,6.60
2017-11-21T22:26:04.328Z,6.90
2017-11-21T22:28:33.243Z,6.80
2017-11-21T22:31:01.114Z,6.90
2017-11-21T22:33:29.009Z,7.10
2017-11-21T22:35:56.875Z,9.00
2017-11-21T22:38:24.789Z,7.83
2017-11-21T22:40:52.641Z,8.00
2017-11-21T22:43:20.753Z,7.77
2017-11-21T22:45:48.639Z,6.80
2017-11-21T22:48:16.562Z,7.10
2017-11-21T22:50:44.469Z,6.00
2017-11-21T22:53:12.413Z,6.73
2017-11-21T22:55:40.285Z,6.70
2017-11-21T22:58:08.176Z,7.47
2017-11-21T23:00:36.745Z,6.70
2017-11-21T23:03:05.129Z,7.87
2017-11-21T23:05:32.998Z,7.23
2017-11-21T23:08:00.899Z,7.87
2017-11-21T23:10:28.855Z,8.03
2017-11-21T23:12:56.917Z,7.83
2017-11-21T23:15:26.876Z,7.93
2017-11-21T23:17:54.741Z,9.90
2017-11-21T23:20:22.701Z,9.23
2017-11-21T23:22:50.626Z,8.73
2017-11-21T23:25:18.486Z,8.53
2017-11-21T23:27:46.357Z,8.80
2017-11-21T23:30:13.630Z,7.90
2017-11-21T23:32:39.750Z,9.07
2017-11-21T23:35:05.919Z,9.73
2017-11-21T23:37:32.788Z,9.63
2017-11-21T23:39:58.890Z,9.67
2017-11-21T23:42:25.016Z,8.50
2017-11-21T23:44:51.172Z,10.10
2017-11-21T23:47:17.307Z,9.50
2017-11-21T23:49:43.455Z,10.60
2017-11-21T23:52:09.593Z,8.40
2017-11-21T23:54:35.785Z,7.43
2017-11-21T23:57:01.895Z,8.00
2017-11-21T23:59:28.750Z,8.40
